createdAt,value
2023-10-23T00:01:57.765Z,11.55
2023-10-23T00:07:00.535Z,11.18
2023-10-23T00:12:03.692Z,9.02
2023-10-23T00:17:06.871Z,9.55
2023-10-23T00:22:09.715Z,8.70
2023-10-23T00:27:12.437Z,8.57
2023-10-23T00:32:15.322Z,6.70
2023-10-23T00:37:18.129Z,6.15
2023-10-23T00:42:20.859Z,6.90
2023-10-23T00:47:24.273Z,7.05
2023-10-23T00:52:27.590Z,7.32
2023-10-23T00:57:30.360Z,7.32
2023-10-23T01:02:33.210Z,7.13
2023-10-23T01:07:36.256Z,8.00
2023-10-23T01:12:39.157Z,7.93
2023-10-23T01:17:42.141Z,8.63
2023-10-23T01:22:44.860Z,8.93
2023-10-23T01:27:47.637Z,9.15
2023-10-23T01:32:50.841Z,9.00
2023-10-23T01:37:53.629Z,9.18
2023-10-23T01:42:56.660Z,9.65
2023-10-23T01:47:59.454Z,9.35
2023-10-23T01:53:02.143Z,10.43
2023-10-23T01:58:04.888Z,10.15
2023-10-23T02:03:07.677Z,10.00
2023-10-23T02:08:10.366Z,9.05
2023-10-23T02:13:13.096Z,9.07
2023-10-23T02:18:16.056Z,7.93
2023-10-23T02:23:19.584Z,7.82
2023-10-23T02:28:22.362Z,7.78
2023-10-23T02:33:25.065Z,8.05
2023-10-23T02:38:27.917Z,8.10
2023-10-23T02:43:30.739Z,7.47
2023-10-23T02:48:33.682Z,7.57
2023-10-23T02:53:36.771Z,7.05
2023-10-23T02:58:39.645Z,7.40
2023-10-23T03:03:42.999Z,6.90
2023-10-23T03:08:45.679Z,6.38
2023-10-23T03:13:48.447Z,6.22
2023-10-23T03:18:51.270Z,6.25
2023-10-23T03:23:54.207Z,6.22
2023-10-23T03:28:57.153Z,6.07
2023-10-23T03:34:00.812Z,5.45
2023-10-23T03:39:03.799Z,6.05
2023-10-23T03:44:06.644Z,6.18
2023-10-23T03:49:09.508Z,6.07
2023-10-23T03:54:12.550Z,5.93
2023-10-23T03:59:15.337Z,6.03
2023-10-23T04:04:18.303Z,6.13
2023-10-23T04:09:21.051Z,5.70
2023-10-23T04:14:23.758Z,6.93
2023-10-23T04:19:26.429Z,7.72
2023-10-23T04:24:30.893Z,7.55
2023-10-23T04:29:33.662Z,8.32
2023-10-23T04:34:36.468Z,8.85
2023-10-23T04:39:39.437Z,8.30
2023-10-23T04:44:42.445Z,10.93
2023-10-23T04:49:48.804Z,9.38
2023-10-23T04:54:51.642Z,9.82
2023-10-23T04:59:54.308Z,9.57
2023-10-23T05:04:57.025Z,9.05
2023-10-23T05:09:59.748Z,10.32
2023-10-23T05:15:03.895Z,10.82
2023-10-23T05:20:09.911Z,10.95
2023-10-23T05:25:12.928Z,10.30
2023-10-23T05:30:15.625Z,13.82
2023-10-23T05:35:18.328Z,12.93
2023-10-23T05:40:20.958Z,11.52
2023-10-23T05:45:23.700Z,10.70
2023-10-23T05:50:26.337Z,11.48
2023-10-23T05:55:28.987Z,11.10
2023-10-23T06:00:31.643Z,10.93
2023-10-23T06:05:34.346Z,10.57
2023-10-23T06:10:46.249Z,11.73
2023-10-23T06:15:53.082Z,11.43
2023-10-23T06:21:05.942Z,11.27
2023-10-23T06:26:09.601Z,10.73
2023-10-23T06:31:12.799Z,9.75
2023-10-23T06:36:15.634Z,10.57
2023-10-23T06:41:18.336Z,10.23
2023-10-23T06:46:21.067Z,9.80
2023-10-23T06:51:23.778Z,10.02
2023-10-23T06:56:26.500Z,8.93
2023-10-23T07:01:38.219Z,7.57
2023-10-23T07:06:47.043Z,8.38
2023-10-23T07:11:53.539Z,8.23
2023-10-23T07:16:56.305Z,8.38
2023-10-23T07:21:59.031Z,8.05
2023-10-23T07:27:01.765Z,9.07
2023-10-23T07:32:05.008Z,8.27
2023-10-23T07:37:07.807Z,8.20
2023-10-23T07:42:10.541Z,8.02
2023-10-23T07:47:13.724Z,7.88
2023-10-23T07:52:16.428Z,9.50
2023-10-23T07:57:19.217Z,15.75
2023-10-23T08:02:21.991Z,17.10
2023-10-23T08:07:24.723Z,16.42
2023-10-23T08:12:27.601Z,18.63
2023-10-23T08:17:41.913Z,15.52
2023-10-23T08:22:45.414Z,12.38
2023-10-23T08:27:48.237Z,10.55
2023-10-23T08:32:53.219Z,12.20
2023-10-23T08:37:56.796Z,11.52
2023-10-23T08:43:00.481Z,12.07
2023-10-23T08:48:03.321Z,12.35
2023-10-23T08:53:10.703Z,13.07
2023-10-23T08:58:14.992Z,11.57
2023-10-23T09:04:04.016Z,12.25
2023-10-23T09:08:43.828Z,11.85
2023-10-23T09:13:46.487Z,13.82
2023-10-23T09:18:52.937Z,17.00
2023-10-23T09:23:57.918Z,17.00
2023-10-23T09:29:00.683Z,14.32
2023-10-23T09:34:04.144Z,17.20
2023-10-23T09:39:07.545Z,16.08
2023-10-23T09:44:10.772Z,17.00
2023-10-23T09:49:13.538Z,17.15
2023-10-23T09:54:23.282Z,21.38
2023-10-23T09:59:30.498Z,15.00
2023-10-23T10:04:35.999Z,15.05
2023-10-23T10:09:40.315Z,13.45
2023-10-23T10:14:44.634Z,11.95
2023-10-23T10:19:48.356Z,12.52
2023-10-23T10:24:52.034Z,12.05
2023-10-23T10:29:54.721Z,13.35
2023-10-23T10:35:01.711Z,12.75
2023-10-23T10:40:06.307Z,12.25
2023-10-23T10:45:16.239Z,15.13
2023-10-23T10:50:51.499Z,13.98
2023-10-23T10:55:54.343Z,13.10
2023-10-23T11:00:58.061Z,13.70
2023-10-23T11:06:01.096Z,11.90
2023-10-23T11:11:06.103Z,16.20
2023-10-23T11:16:08.940Z,14.85
2023-10-23T11:21:11.960Z,16.73
2023-10-23T11:26:14.787Z,15.80
2023-10-23T11:31:17.673Z,16.02
2023-10-23T11:36:22.156Z,16.23
2023-10-23T11:41:26.817Z,15.25
2023-10-23T11:46:31.278Z,18.35
2023-10-23T11:51:34.964Z,17.10
2023-10-23T11:56:38.179Z,16.20
2023-10-23T12:01:40.897Z,15.98
2023-10-23T12:06:43.822Z,16.88
2023-10-23T12:11:46.720Z,16.45
2023-10-23T12:16:49.573Z,17.77
2023-10-23T12:21:52.347Z,16.98
2023-10-23T12:26:57.149Z,18.23
2023-10-23T12:32:02.720Z,18.85
2023-10-23T12:37:08.545Z,19.50
2023-10-23T12:42:11.278Z,19.75
2023-10-23T12:47:14.293Z,19.27
2023-10-23T12:52:17.296Z,20.63
2023-10-23T12:57:19.925Z,19.88
2023-10-23T13:02:22.574Z,20.85
2023-10-23T13:07:25.328Z,23.77
2023-10-23T13:12:28.030Z,27.70
2023-10-23T13:17:30.985Z,26.13
2023-10-23T13:22:35.728Z,25.52
2023-10-23T13:27:40.414Z,22.83
2023-10-23T13:32:43.213Z,19.88
2023-10-23T13:37:46.091Z,19.60
2023-10-23T13:42:48.809Z,16.98
2023-10-23T13:47:51.583Z,16.88
2023-10-23T13:52:54.331Z,15.30
2023-10-23T13:57:57.430Z,17.23
2023-10-23T14:03:00.348Z,14.90
2023-10-23T14:08:03.423Z,15.07
2023-10-23T14:13:06.126Z,14.00
2023-10-23T14:18:08.981Z,14.88
2023-10-23T14:23:11.773Z,14.82
2023-10-23T14:28:14.421Z,14.23
2023-10-23T14:33:17.386Z,14.30
2023-10-23T14:38:24.848Z,15.15
2023-10-23T14:43:28.648Z,17.90
2023-10-23T14:48:31.440Z,18.10
2023-10-23T14:53:34.171Z,21.33
2023-10-23T14:58:37.202Z,22.55
2023-10-23T15:03:43.404Z,22.48
2023-10-23T15:08:46.671Z,17.92
2023-10-23T15:13:50.906Z,17.85
2023-10-23T15:18:54.294Z,15.30
2023-10-23T15:23:57.255Z,11.50
2023-10-23T15:29:00.004Z,6.43
2023-10-23T15:34:02.821Z,2.78
2023-10-23T15:39:05.779Z,2.80
2023-10-23T15:44:08.515Z,3.45
2023-10-23T15:49:11.415Z,2.08
2023-10-23T15:54:14.160Z,2.78
2023-10-23T15:59:17.241Z,3.25
2023-10-23T16:04:20.243Z,3.17
2023-10-23T16:09:27.479Z,3.00
2023-10-23T16:14:34.610Z,2.45
2023-10-23T16:19:42.163Z,2.55
2023-10-23T16:24:44.893Z,2.75
2023-10-23T16:29:50.231Z,2.63
2023-10-23T16:34:53.214Z,2.20
2023-10-23T16:39:57.352Z,1.52
2023-10-23T16:45:00.247Z,1.50
2023-10-23T16:50:05.147Z,1.70
2023-10-23T16:55:09.092Z,1.00
2023-10-23T17:00:17.100Z,0.90
2023-10-23T17:05:19.894Z,1.13
2023-10-23T17:10:22.739Z,1.00
2023-10-23T17:15:25.427Z,0.95
2023-10-23T17:20:28.079Z,0.90
2023-10-23T17:25:30.765Z,1.10
2023-10-23T17:30:33.422Z,0.95
2023-10-23T17:35:36.696Z,0.80
2023-10-23T17:40:39.444Z,0.80
2023-10-23T17:45:42.503Z,0.90
2023-10-23T17:50:45.201Z,0.80
2023-10-23T17:55:48.093Z,0.80
2023-10-23T18:00:51.652Z,0.80
2023-10-23T18:06:01.239Z,0.68
2023-10-23T18:11:05.658Z,0.77
2023-10-23T18:16:09.448Z,0.90
2023-10-23T18:21:12.499Z,0.90
2023-10-23T18:26:15.210Z,1.00
2023-10-23T18:31:18.105Z,0.60
2023-10-23T18:36:21.811Z,0.70
2023-10-23T18:41:24.770Z,0.68
2023-10-23T18:46:27.545Z,0.63
2023-10-23T18:51:30.322Z,0.82
2023-10-23T18:56:34.439Z,0.80
2023-10-23T19:01:37.307Z,0.52
2023-10-23T19:06:40.443Z,0.40
2023-10-23T19:11:43.128Z,0.38
2023-10-23T19:16:46.238Z,0.63
2023-10-23T19:21:48.968Z,0.57
2023-10-23T19:26:51.621Z,0.88
2023-10-23T19:31:54.583Z,0.70
2023-10-23T19:36:58.799Z,0.70
2023-10-23T19:42:03.304Z,0.77
2023-10-23T19:47:06.460Z,0.30
2023-10-23T19:52:12.289Z,0.55
2023-10-23T19:57:15.531Z,0.43
2023-10-23T20:02:18.404Z,0.43
2023-10-23T20:07:21.541Z,0.60
2023-10-23T20:12:24.400Z,1.00
2023-10-23T20:17:27.300Z,0.70
2023-10-23T20:22:30.117Z,0.60
2023-10-23T20:27:32.787Z,0.70
2023-10-23T20:32:35.705Z,0.50
2023-10-23T20:37:38.723Z,0.65
2023-10-23T20:42:41.550Z,0.80
2023-10-23T20:47:44.279Z,0.70
2023-10-23T20:52:47.022Z,0.73
2023-10-23T20:57:49.663Z,0.60
2023-10-23T21:02:52.707Z,0.60
2023-10-23T21:07:55.559Z,0.50
2023-10-23T21:12:58.290Z,0.68
2023-10-23T21:18:01.091Z,0.45
2023-10-23T21:23:06.945Z,0.77
2023-10-23T21:28:09.776Z,0.90
2023-10-23T21:33:12.902Z,0.98
2023-10-23T21:38:15.910Z,1.27
2023-10-23T21:43:19.715Z,1.20
2023-10-23T21:48:22.582Z,1.20
2023-10-23T21:53:25.575Z,1.17
2023-10-23T21:59:05.295Z,1.40
2023-10-23T22:03:53.134Z,1.20
2023-10-23T22:08:56.170Z,1.25
2023-10-23T22:13:58.973Z,1.10
2023-10-23T22:19:01.629Z,1.20
2023-10-23T22:24:04.811Z,1.00
2023-10-23T22:29:07.534Z,1.00
2023-10-23T22:34:10.335Z,1.30
2023-10-23T22:39:12.980Z,1.08
2023-10-23T22:44:17.653Z,0.98
2023-10-23T22:49:20.561Z,1.30
2023-10-23T22:54:24.383Z,1.40
2023-10-23T22:59:27.371Z,1.40
2023-10-23T23:04:30.412Z,1.50
2023-10-23T23:09:33.373Z,1.40
2023-10-23T23:14:36.218Z,1.40
2023-10-23T23:19:44.105Z,1.00
2023-10-23T23:24:46.811Z,1.45
2023-10-23T23:29:49.447Z,1.30
2023-10-23T23:34:52.111Z,1.42
2023-10-23T23:39:54.740Z,1.30
2023-10-23T23:45:12.598Z,1.10
2023-10-23T23:50:15.248Z,1.00
2023-10-23T23:55:17.941Z,1.10
